Time;durP1;ratioP1;P1;durP2;ratioP2;P2;SDS_P1;SDS_P2;PMS_P1;PMS_P2;Temp;Humidity;BMP_temperature;BMP_pressure;BME280_temperature;BME280_humidity;BME280_pressure;Samples;Min_cycle;Max_cycle;Signal;HPM_P1;HPM_P2
2021/06/17 00:00:54;;;;;;;13.47;10.43;;;;;;;21.80;63.65;100862.50;5249758;28;20060;-65
2021/06/17 00:03:26;;;;;;;11.80;9.50;;;;;;;21.88;63.39;100862.28;5252621;28;20033;-65
2021/06/17 00:05:57;;;;;;;11.37;10.03;;;;;;;21.75;64.19;100864.94;5251767;28;20029;-65
2021/06/17 00:08:28;;;;;;;11.47;10.30;;;;;;;21.71;64.22;100863.72;5253216;28;20984;-65
2021/06/17 00:11:01;;;;;;;12.13;9.90;;;;;;;21.68;64.42;100866.78;5254937;28;20383;-65
2021/06/17 00:13:36;;;;;;;10.45;9.13;;;;;;;21.74;63.72;100876.63;5255791;28;20032;-65
2021/06/17 00:16:08;;;;;;;12.13;9.52;;;;;;;21.61;64.34;100875.59;5256810;28;20488;-65
2021/06/17 00:18:40;;;;;;;12.75;9.70;;;;;;;21.52;64.80;100879.47;5254901;28;20115;-65
2021/06/17 00:21:11;;;;;;;12.53;9.13;;;;;;;21.54;64.55;100877.41;5255540;28;20155;-66
2021/06/17 00:23:42;;;;;;;13.93;10.00;;;;;;;21.43;65.23;100872.66;5256643;28;20060;-66
2021/06/17 00:26:14;;;;;;;11.37;10.07;;;;;;;21.35;65.43;100870.19;5256160;28;20040;-65
2021/06/17 00:28:45;;;;;;;12.40;9.57;;;;;;;21.33;65.82;100864.25;5256060;28;20032;-65
2021/06/17 00:31:16;;;;;;;12.57;9.03;;;;;;;21.23;66.51;100859.25;5256407;28;20341;-65
2021/06/17 00:33:48;;;;;;;12.73;9.93;;;;;;;21.25;65.95;100856.38;5255046;28;20039;-65
2021/06/17 00:36:19;;;;;;;11.70;10.43;;;;;;;21.28;65.35;100840.81;5254557;28;20418;-65
2021/06/17 00:38:50;;;;;;;11.27;10.07;;;;;;;21.33;64.45;100845.59;5253822;28;20025;-66
2021/06/17 00:41:21;;;;;;;10.87;9.23;;;;;;;21.34;64.55;100847.22;5256376;28;20160;-66
2021/06/17 00:43:53;;;;;;;12.33;11.13;;;;;;;21.30;64.72;100845.94;5256673;28;20017;-66
2021/06/17 00:46:24;;;;;;;13.63;10.57;;;;;;;21.25;65.03;100845.72;5252850;28;20071;-66
2021/06/17 00:48:55;;;;;;;13.83;10.43;;;;;;;21.20;65.03;100837.50;5256750;28;20031;-66
2021/06/17 00:51:28;;;;;;;11.77;10.30;;;;;;;21.17;64.59;100835.25;5256135;28;20437;-65
2021/06/17 00:54:00;;;;;;;12.45;9.43;;;;;;;21.11;64.88;100840.34;5253692;28;20025;-66
2021/06/17 00:56:31;;;;;;;12.00;10.23;;;;;;;21.12;65.21;100842.00;5255539;28;20032;-66
2021/06/17 00:59:03;;;;;;;11.30;10.23;;;;;;;21.11;64.89;100853.69;5255601;28;20029;-66
2021/06/17 01:01:36;;;;;;;11.68;9.30;;;;;;;21.03;65.42;100851.19;5253199;28;20033;-66
2021/06/17 01:04:08;;;;;;;10.77;9.68;;;;;;;20.98;65.32;100850.94;5255148;28;20060;-66
2021/06/17 01:06:39;;;;;;;10.53;9.40;;;;;;;20.97;65.57;100846.63;5256532;28;20314;-66
2021/06/17 01:09:19;;;;;;;12.43;10.37;;;;;;;20.90;65.42;100835.13;5255301;28;20028;-66
2021/06/17 01:12:02;;;;;;;10.57;9.52;;;;;;;20.89;66.23;100839.63;5254515;28;20043;-67
2021/06/17 01:14:40;;;;;;;11.02;9.93;;;;;;;20.88;65.38;100843.34;5253831;28;20028;-65
2021/06/17 01:17:13;;;;;;;11.00;9.88;;;;;;;20.86;65.23;100842.69;5254565;28;20137;-66
2021/06/17 01:19:53;;;;;;;11.23;10.10;;;;;;;20.78;65.67;100850.84;5255171;28;20044;-67
2021/06/17 01:22:33;;;;;;;11.93;10.43;;;;;;;20.79;65.92;100851.66;5254984;28;20506;-66
2021/06/17 01:25:24;;;;;;;12.30;9.73;;;;;;;20.73;66.14;100855.13;5251957;28;20040;-65
2021/06/17 01:28:04;;;;;;;11.02;9.98;;;;;;;20.74;66.31;100854.09;5253313;28;20055;-64
2021/06/17 01:30:45;;;;;;;14.65;10.82;;;;;;;20.67;66.31;100859.38;5253731;28;20702;-65
2021/06/17 01:33:17;;;;;;;11.65;10.38;;;;;;;20.60;67.45;100854.03;5254044;28;20025;-65
2021/06/17 01:35:50;;;;;;;11.48;10.27;;;;;;;20.52;67.42;100854.19;5252838;28;20490;-65
2021/06/17 01:38:25;;;;;;;11.05;10.02;;;;;;;20.51;67.65;100852.53;5253757;28;20032;-65
2021/06/17 01:40:57;;;;;;;12.13;10.00;;;;;;;20.44;67.43;100845.50;5255584;28;20280;-66
2021/06/17 01:43:29;;;;;;;11.38;10.25;;;;;;;20.44;68.38;100848.97;5255338;28;20304;-65
2021/06/17 01:46:02;;;;;;;11.67;10.23;;;;;;;20.40;68.12;100845.06;5250809;28;20518;-65
2021/06/17 01:48:34;;;;;;;;;;;;;;;20.74;64.96;100846.94;5255246;28;20341;-65
2021/06/17 01:51:06;;;;;;;11.00;9.85;;;;;;;20.38;67.47;100844.44;5255330;28;19939;-65
2021/06/17 01:53:39;;;;;;;10.87;9.37;;;;;;;20.38;67.90;100845.28;5250580;28;20029;-65
2021/06/17 01:56:10;;;;;;;13.55;10.45;;;;;;;20.30;68.25;100848.06;5253568;28;20040;-66
2021/06/17 01:58:44;;;;;;;10.73;9.63;;;;;;;20.29;68.33;100840.28;5254882;28;20056;-65
2021/06/17 02:01:18;;;;;;;11.93;10.18;;;;;;;20.27;68.86;100848.47;5249966;28;20025;-66
2021/06/17 02:03:50;;;;;;;11.43;10.27;;;;;;;20.16;68.66;100835.69;5246689;28;20611;-65
2021/06/17 02:06:22;;;;;;;12.20;10.35;;;;;;;20.24;68.29;100848.84;5250655;28;20077;-66
2021/06/17 02:08:55;;;;;;;10.93;9.67;;;;;;;20.25;68.66;100833.72;5254694;28;20107;-65
2021/06/17 02:11:28;;;;;;;14.30;10.65;;;;;;;20.16;68.97;100841.84;5245564;28;20384;-65
2021/06/17 02:14:00;;;;;;;12.02;10.20;;;;;;;20.10;68.98;100837.28;5251794;28;20482;-66
2021/06/17 02:16:34;;;;;;;14.60;10.93;;;;;;;20.15;68.74;100839.34;5248859;28;20079;-65
2021/06/17 02:19:06;;;;;;;10.80;9.77;;;;;;;20.01;69.45;100843.75;5251405;28;20510;-65
2021/06/17 02:21:38;;;;;;;12.03;10.83;;;;;;;20.07;69.59;100829.69;5253380;28;20151;-66
2021/06/17 02:24:10;;;;;;;12.10;10.23;;;;;;;20.05;69.07;100830.91;5253207;28;20390;-66
2021/06/17 02:26:42;;;;;;;;;;;;;;;20.38;66.46;100826.66;5250718;28;20493;-67
2021/06/17 02:29:17;;;;;;;14.50;9.77;;;;;;;20.12;68.90;100827.28;5252545;28;19948;-67
2021/06/17 02:31:50;;;;;;;11.85;10.65;;;;;;;20.08;67.96;100818.03;5252265;28;20478;-67
2021/06/17 02:34:24;;;;;;;14.63;11.18;;;;;;;20.22;66.89;100818.94;5253297;28;20029;-67
2021/06/17 02:36:56;;;;;;;14.10;11.30;;;;;;;20.14;67.27;100822.56;5250856;28;20031;-66
2021/06/17 02:39:29;;;;;;;13.05;10.80;;;;;;;20.14;67.34;100811.13;5253520;28;20056;-67
2021/06/17 02:42:02;;;;;;;18.15;11.85;;;;;;;20.23;66.82;100809.97;5252461;28;20077;-67
2021/06/17 02:44:34;;;;;;;14.32;12.82;;;;;;;20.23;67.07;100806.47;5249587;28;20602;-66
2021/06/17 02:47:05;;;;;;;13.57;11.40;;;;;;;20.17;67.00;100803.56;5253462;28;20112;-67
2021/06/17 02:49:40;;;;;;;15.47;12.03;;;;;;;20.18;67.23;100802.53;5254767;28;20028;-67
2021/06/17 02:52:11;;;;;;;16.00;12.07;;;;;;;20.10;67.64;100792.06;5250804;28;20039;-67
2021/06/17 02:54:43;;;;;;;12.63;11.27;;;;;;;20.20;66.98;100793.56;5251988;28;20128;-67
2021/06/17 02:57:46;;;;;;;12.43;10.33;;;;;;;20.17;67.09;100792.13;5253521;28;20386;-67
2021/06/17 03:00:20;;;;;;;14.55;11.48;;;;;;;20.07;68.02;100795.09;5240676;28;20287;-67
2021/06/17 03:02:57;;;;;;;12.55;11.25;;;;;;;20.12;67.98;100797.19;5253788;28;20048;-67
2021/06/17 03:05:52;;;;;;;13.93;12.15;;;;;;;20.15;67.07;100794.13;5252527;28;20025;-67
2021/06/17 03:08:40;;;;;;;14.93;11.82;;;;;;;20.17;66.60;100794.78;5252737;28;20398;-67
2021/06/17 03:11:13;;;;;;;13.18;11.30;;;;;;;20.07;67.07;100800.41;5248979;28;20029;-66
2021/06/17 03:13:48;;;;;;;15.05;12.00;;;;;;;20.14;66.90;100795.16;5251322;28;20029;-67
2021/06/17 03:16:23;;;;;;;13.48;11.50;;;;;;;20.09;67.43;100800.25;5253501;28;20029;-67
2021/06/17 03:19:00;;;;;;;12.75;11.27;;;;;;;20.14;67.56;100803.94;5252491;28;20029;-67
2021/06/17 03:21:40;;;;;;;13.40;12.02;;;;;;;20.17;66.80;100803.56;5253131;28;20409;-67
2021/06/17 03:24:14;;;;;;;14.13;12.02;;;;;;;20.06;67.05;100801.44;5252866;28;20033;-66
2021/06/17 03:26:47;;;;;;;15.55;10.85;;;;;;;20.07;67.56;100797.75;5250313;28;20131;-67
2021/06/17 03:29:23;;;;;;;13.07;11.27;;;;;;;20.13;67.30;100794.34;5251339;28;20032;-67
2021/06/17 03:31:56;;;;;;;12.77;11.50;;;;;;;20.08;67.60;100796.75;5249755;28;20021;-67
2021/06/17 03:34:29;;;;;;;14.77;12.10;;;;;;;20.05;67.92;100797.16;5251541;28;20029;-67
2021/06/17 03:37:01;;;;;;;12.82;11.35;;;;;;;20.11;67.53;100796.34;5249173;28;20029;-66
2021/06/17 03:39:33;;;;;;;12.97;11.47;;;;;;;20.07;67.84;100783.63;5252991;28;20093;-67
2021/06/17 03:42:07;;;;;;;13.93;12.52;;;;;;;20.14;67.25;100787.19;5254733;28;20032;-67
2021/06/17 03:44:41;;;;;;;14.25;12.43;;;;;;;20.15;67.54;100792.31;5255645;28;20036;-66
2021/06/17 03:47:15;;;;;;;13.63;12.20;;;;;;;20.22;67.47;100791.53;5255962;28;20024;-64
2021/06/17 03:49:47;;;;;;;13.88;12.48;;;;;;;20.20;67.84;100793.56;5256936;28;20036;-64
2021/06/17 03:52:19;;;;;;;13.37;12.03;;;;;;;20.28;67.54;100798.75;5255502;28;20025;-65
2021/06/17 03:54:51;;;;;;;13.23;11.88;;;;;;;20.29;67.64;100801.19;5257013;28;20104;-65
2021/06/17 03:57:22;;;;;;;14.13;11.53;;;;;;;20.25;68.32;100797.28;5255004;28;20035;-66
2021/06/17 03:59:56;;;;;;;13.47;11.97;;;;;;;20.28;68.40;100799.56;5256285;28;20025;-65
2021/06/17 04:02:28;;;;;;;14.13;12.75;;;;;;;20.35;67.83;100794.28;5247089;28;20059;-66
2021/06/17 04:05:01;;;;;;;13.57;12.23;;;;;;;20.36;68.00;100794.06;5254300;28;20036;-65
2021/06/17 04:07:35;;;;;;;14.07;11.90;;;;;;;20.40;68.01;100798.00;5252665;28;20032;-66
2021/06/17 04:10:09;;;;;;;13.70;11.85;;;;;;;20.44;68.17;100806.41;5255718;28;20021;-65
2021/06/17 04:12:41;;;;;;;17.02;12.27;;;;;;;20.39;68.40;100801.66;5254369;28;20031;-65
2021/06/17 04:15:15;;;;;;;15.27;11.90;;;;;;;20.48;68.14;100797.00;5255432;28;20473;-66
2021/06/17 04:17:51;;;;;;;17.00;12.68;;;;;;;20.49;68.25;100798.66;5254358;28;20040;-65
2021/06/17 04:20:31;;;;;;;14.65;12.75;;;;;;;20.54;68.76;100803.44;5255259;28;20045;-66
2021/06/17 04:23:05;;;;;;;13.15;11.85;;;;;;;20.52;68.90;100800.94;5254467;28;20064;-66
2021/06/17 04:25:40;;;;;;;14.70;13.18;;;;;;;20.52;69.19;100797.47;5254347;28;20102;-66
2021/06/17 04:28:11;;;;;;;13.13;11.82;;;;;;;20.56;68.73;100807.53;5254454;28;20024;-65
2021/06/17 04:30:45;;;;;;;13.67;12.27;;;;;;;20.63;68.93;100800.41;5256799;28;20363;-65
2021/06/17 04:33:19;;;;;;;13.85;12.55;;;;;;;20.65;68.65;100795.72;5255899;28;20064;-66
2021/06/17 04:35:54;;;;;;;14.45;12.02;;;;;;;20.76;68.82;100806.78;5253483;28;20090;-65
2021/06/17 04:38:26;;;;;;;16.13;12.23;;;;;;;20.83;68.58;100800.47;5255222;28;20116;-65
2021/06/17 04:40:58;;;;;;;13.75;12.05;;;;;;;20.82;68.39;100790.84;5256397;28;20017;-66
2021/06/17 04:43:34;;;;;;;13.93;12.53;;;;;;;20.97;68.21;100798.69;5255229;28;20030;-66
2021/06/17 04:46:06;;;;;;;12.80;11.45;;;;;;;21.02;68.30;100798.09;5255270;28;20029;-65
2021/06/17 04:48:41;;;;;;;13.93;12.57;;;;;;;21.10;68.27;100796.09;5256267;28;20402;-66
2021/06/17 04:51:13;;;;;;;13.85;11.85;;;;;;;21.19;67.75;100794.06;5253307;28;20761;-66
2021/06/17 04:53:44;;;;;;;15.93;11.80;;;;;;;21.27;67.26;100793.88;5256258;28;20441;-66
2021/06/17 04:56:16;;;;;;;12.70;10.80;;;;;;;21.28;66.23;100787.50;5254090;28;20025;-66
2021/06/17 04:58:49;;;;;;;12.57;9.93;;;;;;;21.41;65.97;100800.09;5256093;28;20079;-66
2021/06/17 05:01:21;;;;;;;10.73;9.63;;;;;;;21.53;65.25;100797.66;5253868;28;20032;-66
2021/06/17 05:03:52;;;;;;;11.03;9.30;;;;;;;21.55;65.26;100801.72;5255833;28;20114;-66
2021/06/17 05:06:23;;;;;;;14.23;9.47;;;;;;;21.58;65.27;100797.84;5255137;28;20029;-65
2021/06/17 05:11:45;;;;;;;14.05;9.75;;;;;;;21.66;64.92;100799.50;5254605;28;20045;-66
2021/06/17 05:14:16;;;;;;;10.43;9.43;;;;;;;21.68;64.72;100806.28;5253826;28;20021;-66
2021/06/17 05:16:47;;;;;;;10.43;9.33;;;;;;;21.75;64.66;100808.94;5252816;28;20029;-67
2021/06/17 05:19:19;;;;;;;18.10;9.77;;;;;;;21.76;64.75;100805.25;5253438;28;20021;-67
2021/06/17 05:21:50;;;;;;;10.70;9.53;;;;;;;21.90;64.58;100814.91;5256589;28;20131;-66
2021/06/17 05:24:22;;;;;;;12.93;10.87;;;;;;;21.99;64.18;100815.50;5252367;28;20029;-66
2021/06/17 05:26:53;;;;;;;12.13;10.37;;;;;;;22.09;63.76;100815.91;5254820;28;20208;-66
2021/06/17 05:29:24;;;;;;;11.73;9.53;;;;;;;22.18;63.09;100820.03;5255412;28;20516;-67
2021/06/17 05:31:56;;;;;;;12.73;9.03;;;;;;;22.26;62.88;100808.31;5253691;28;20024;-67
2021/06/17 05:34:27;;;;;;;10.55;9.10;;;;;;;22.39;62.44;100816.31;5252329;28;20025;-66
2021/06/17 05:36:59;;;;;;;10.17;9.07;;;;;;;22.54;62.37;100830.25;5253017;28;20112;-66
2021/06/17 05:39:30;;;;;;;9.23;8.30;;;;;;;22.73;59.86;100825.88;5253971;28;20033;-66
2021/06/17 05:42:02;;;;;;;8.73;7.37;;;;;;;22.88;58.95;100824.78;5250785;28;20025;-66
2021/06/17 05:44:33;;;;;;;10.00;7.00;;;;;;;23.04;58.10;100827.84;5254431;28;20564;-66
2021/06/17 05:47:05;;;;;;;10.03;7.30;;;;;;;23.20;57.20;100823.03;5254308;28;20036;-66
2021/06/17 05:49:36;;;;;;;11.77;6.13;;;;;;;23.26;56.98;100830.19;5254900;28;20032;-67
2021/06/17 05:52:07;;;;;;;15.43;6.30;;;;;;;23.45;56.17;100839.13;5251508;28;20214;-67
2021/06/17 05:54:39;;;;;;;9.27;6.70;;;;;;;23.59;56.05;100830.00;5254664;28;20465;-68
2021/06/17 05:57:10;;;;;;;7.90;6.27;;;;;;;23.81;54.33;100832.34;5253775;28;20021;-67
2021/06/17 05:59:41;;;;;;;9.93;6.83;;;;;;;24.02;54.65;100826.63;5250045;28;20044;-69
2021/06/17 06:02:14;;;;;;;9.10;6.20;;;;;;;24.21;53.65;100830.97;5251470;28;20025;-68
2021/06/17 06:04:45;;;;;;;7.32;6.32;;;;;;;24.31;53.45;100825.09;5251305;28;20033;-68
2021/06/17 06:07:16;;;;;;;10.67;6.37;;;;;;;24.39;52.37;100822.16;5247523;28;20033;-68
2021/06/17 06:09:48;;;;;;;6.80;5.33;;;;;;;24.49;51.86;100825.16;5251053;28;20107;-69
2021/06/17 06:12:19;;;;;;;8.73;6.03;;;;;;;24.51;52.59;100824.94;5250876;28;20406;-69
2021/06/17 06:14:50;;;;;;;8.00;5.27;;;;;;;24.59;50.51;100834.53;5241737;28;20368;-67
2021/06/17 06:17:22;;;;;;;5.47;4.60;;;;;;;24.63;51.13;100839.22;5248196;28;20033;-67
2021/06/17 06:19:53;;;;;;;7.33;4.87;;;;;;;24.68;50.67;100835.88;5248104;28;20033;-67
2021/06/17 06:22:25;;;;;;;5.77;4.80;;;;;;;24.67;50.44;100837.75;5248648;28;20037;-70
2021/06/17 06:24:57;;;;;;;9.02;4.95;;;;;;;24.70;51.01;100842.66;5248096;28;20606;-68
2021/06/17 06:27:28;;;;;;;8.60;4.87;;;;;;;24.75;50.42;100844.66;5249928;28;20094;-68
2021/06/17 06:30:03;;;;;;;8.27;4.50;;;;;;;24.78;50.63;100830.81;5247580;28;20034;-68
2021/06/17 06:32:34;;;;;;;8.35;5.05;;;;;;;24.74;51.15;100841.16;5250627;28;20035;-68
2021/06/17 06:35:07;;;;;;;7.87;4.90;;;;;;;24.73;51.15;100866.28;5249887;28;20029;-68
2021/06/17 06:37:38;;;;;;;9.35;4.70;;;;;;;24.70;51.18;100866.78;5253264;28;20028;-67
2021/06/17 06:40:10;;;;;;;7.53;4.60;;;;;;;24.72;50.98;100880.75;5252615;28;20087;-69
2021/06/17 06:42:42;;;;;;;8.37;5.40;;;;;;;24.71;51.64;100879.13;5248233;28;20080;-69
2021/06/17 06:45:14;;;;;;;8.63;4.68;;;;;;;24.80;50.74;100882.31;5251699;28;20032;-67
2021/06/17 06:47:45;;;;;;;7.27;4.33;;;;;;;25.01;50.43;100873.00;5244897;28;20027;-68
2021/06/17 06:50:18;;;;;;;6.37;4.33;;;;;;;25.30;50.44;100879.47;5250590;28;20556;-68
2021/06/17 06:52:49;;;;;;;9.40;4.90;;;;;;;25.53;49.05;100886.78;5248801;28;20025;-68
2021/06/17 06:55:22;;;;;;;7.03;4.63;;;;;;;25.62;48.58;100884.63;5249029;28;20401;-69
2021/06/17 06:57:55;;;;;;;9.48;4.53;;;;;;;25.72;48.95;100887.53;5249598;28;20021;-69
2021/06/17 07:00:26;;;;;;;7.22;4.60;;;;;;;25.76;48.30;100896.78;5251532;28;20028;-68
2021/06/17 07:02:57;;;;;;;9.73;4.40;;;;;;;25.85;47.70;100903.50;5245481;28;20671;-69
2021/06/17 07:05:29;;;;;;;7.80;4.03;;;;;;;25.86;47.94;100894.38;5248874;28;20029;-67
2021/06/17 07:08:04;;;;;;;8.70;4.20;;;;;;;25.88;48.49;100889.63;5244247;28;20025;-70
2021/06/17 07:10:37;;;;;;;9.18;4.15;;;;;;;26.09;47.13;100884.72;5248572;28;20065;-68
2021/06/17 07:13:09;;;;;;;7.25;4.00;;;;;;;26.14;47.02;100888.38;5251134;28;20114;-68
2021/06/17 07:15:41;;;;;;;5.90;3.33;;;;;;;26.22;46.94;100883.72;5243284;28;20689;-68
2021/06/17 07:18:13;;;;;;;6.53;3.40;;;;;;;26.32;46.55;100887.44;5250674;28;20037;-69
2021/06/17 07:20:44;;;;;;;5.57;3.40;;;;;;;26.40;46.51;100884.41;5254095;28;20109;-67
2021/06/17 07:23:15;;;;;;;8.40;3.80;;;;;;;26.48;46.58;100898.56;5252339;28;20026;-68
2021/06/17 07:25:47;;;;;;;6.90;3.23;;;;;;;26.43;46.66;100897.34;5249218;28;20520;-70
2021/06/17 07:28:18;;;;;;;6.03;3.43;;;;;;;26.51;46.72;100895.41;5253314;28;20033;-67
2021/06/17 07:30:50;;;;;;;5.73;3.43;;;;;;;26.59;46.82;100909.28;5253592;28;20410;-68
2021/06/17 07:33:21;;;;;;;6.43;3.53;;;;;;;26.72;47.04;100915.50;5253932;28;20523;-68
2021/06/17 07:35:52;;;;;;;7.67;3.13;;;;;;;26.82;46.92;100905.78;5254109;28;20097;-67
2021/06/17 07:38:24;;;;;;;6.53;3.73;;;;;;;26.85;46.35;100916.06;5253679;28;20032;-67
2021/06/17 07:40:55;;;;;;;6.63;3.40;;;;;;;26.88;46.49;100898.63;5253167;28;20064;-67
2021/06/17 07:43:26;;;;;;;7.03;3.30;;;;;;;27.06;46.50;100901.16;5252935;28;20075;-67
2021/06/17 07:45:59;;;;;;;4.87;3.20;;;;;;;27.12;46.54;100904.78;5252402;28;20040;-67
2021/06/17 07:48:31;;;;;;;9.02;3.20;;;;;;;27.12;46.62;100899.41;5250843;28;20087;-67
2021/06/17 07:51:03;;;;;;;4.35;3.22;;;;;;;27.11;46.72;100884.34;5250147;28;20114;-68
2021/06/17 07:53:35;;;;;;;6.60;2.97;;;;;;;27.37;46.66;100891.84;5253371;28;20112;-68
2021/06/17 07:56:07;;;;;;;8.30;3.35;;;;;;;27.50;45.53;100879.97;5255556;28;20386;-68
2021/06/17 07:58:42;;;;;;;6.88;2.70;;;;;;;27.55;45.25;100877.38;5255622;28;20025;-68
2021/06/17 08:01:14;;;;;;;7.32;3.08;;;;;;;27.63;45.91;100874.31;5254113;28;20028;-68
2021/06/17 08:03:45;;;;;;;7.17;3.17;;;;;;;27.78;45.44;100873.78;5254125;28;20359;-68
2021/06/17 08:06:17;;;;;;;7.60;3.43;;;;;;;27.69;44.92;100874.38;5250220;28;20033;-68
2021/06/17 08:08:48;;;;;;;5.28;2.80;;;;;;;27.88;45.33;100873.13;5249955;28;20036;-68
2021/06/17 08:11:20;;;;;;;3.73;3.00;;;;;;;28.02;45.79;100862.84;5252361;28;20493;-68
2021/06/17 08:13:51;;;;;;;5.57;3.23;;;;;;;28.20;44.77;100867.16;5253982;28;20042;-69
2021/06/17 08:16:23;;;;;;;6.80;3.40;;;;;;;28.31;45.01;100868.94;5252132;28;20450;-68
2021/06/17 08:18:55;;;;;;;5.83;3.33;;;;;;;28.38;44.64;100869.63;5255005;28;20036;-68
2021/06/17 08:21:27;;;;;;;5.18;2.95;;;;;;;28.35;43.98;100859.31;5255301;28;20084;-68
2021/06/17 08:23:58;;;;;;;6.75;3.20;;;;;;;28.49;44.61;100849.00;5251718;28;20040;-68
2021/06/17 08:26:30;;;;;;;8.17;3.27;;;;;;;28.47;44.10;100845.75;5252381;28;20028;-67
2021/06/17 08:29:02;;;;;;;;;;;;;;;28.89;44.83;100837.13;5253289;28;20025;-69
2021/06/17 08:31:35;;;;;;;5.45;2.97;;;;;;;28.90;43.68;100827.94;5252764;28;19927;-68
2021/06/17 08:34:07;;;;;;;7.40;3.60;;;;;;;28.88;42.64;100824.69;5248082;28;20553;-68
2021/06/17 08:36:39;;;;;;;7.85;3.35;;;;;;;29.07;43.53;100820.63;5251171;28;20074;-68
2021/06/17 08:39:10;;;;;;;8.05;3.10;;;;;;;29.17;43.04;100815.34;5250278;28;20056;-69
2021/06/17 08:41:42;;;;;;;7.00;3.33;;;;;;;29.22;42.77;100812.69;5251421;28;20025;-67
2021/06/17 08:44:13;;;;;;;9.33;3.40;;;;;;;29.28;42.80;100833.28;5249689;28;20026;-68
2021/06/17 08:46:45;;;;;;;7.83;3.40;;;;;;;29.32;42.74;100822.75;5253444;28;20033;-67
2021/06/17 08:49:16;;;;;;;5.83;3.07;;;;;;;29.48;42.35;100813.75;5254503;28;20268;-66
2021/06/17 08:51:48;;;;;;;5.27;3.10;;;;;;;29.46;42.76;100801.56;5251094;28;20668;-67
2021/06/17 08:54:21;;;;;;;8.87;3.77;;;;;;;29.21;41.95;100799.44;5251788;28;20036;-69
2021/06/17 08:56:53;;;;;;;8.43;3.75;;;;;;;29.25;41.95;100798.69;5251885;28;20290;-69
2021/06/17 08:59:34;;;;;;;6.60;3.20;;;;;;;29.47;43.18;100800.50;5254829;28;20028;-70
2021/06/17 09:02:06;;;;;;;7.80;3.22;;;;;;;29.55;42.90;100800.84;5251178;28;20112;-68
2021/06/17 09:04:37;;;;;;;5.90;3.15;;;;;;;29.74;42.47;100814.00;5252689;28;20021;-69
2021/06/17 09:07:11;;;;;;;6.33;3.13;;;;;;;29.90;41.01;100810.31;5255206;28;20623;-69
2021/06/17 09:09:44;;;;;;;6.65;2.83;;;;;;;29.78;40.54;100807.81;5251602;28;20442;-68
2021/06/17 09:12:19;;;;;;;6.65;3.22;;;;;;;29.93;41.76;100804.41;5251104;28;20098;-68
2021/06/17 09:14:53;;;;;;;7.68;3.05;;;;;;;29.92;40.94;100802.75;5252479;28;20147;-68
2021/06/17 09:17:24;;;;;;;5.10;2.75;;;;;;;29.88;41.43;100800.84;5251940;28;20040;-68
2021/06/17 09:19:56;;;;;;;8.63;3.20;;;;;;;29.93;41.13;100808.97;5251939;28;20035;-68
2021/06/17 09:22:27;;;;;;;5.25;2.75;;;;;;;29.89;42.24;100808.72;5251129;28;20056;-67
2021/06/17 09:24:58;;;;;;;7.17;3.27;;;;;;;29.96;40.40;100808.47;5250969;28;20025;-68
2021/06/17 09:27:35;;;;;;;6.23;3.10;;;;;;;30.08;41.08;100806.41;5252629;28;20067;-69
2021/06/17 09:30:09;;;;;;;8.93;3.53;;;;;;;30.19;40.28;100824.34;5249334;28;20048;-71
2021/06/17 09:32:47;;;;;;;8.50;3.33;;;;;;;30.06;40.26;100820.16;5251956;28;20052;-67
2021/06/17 09:35:20;;;;;;;5.57;3.20;;;;;;;30.17;40.73;100825.66;5252260;28;20390;-68
2021/06/17 09:38:04;;;;;;;8.80;3.47;;;;;;;30.10;40.34;100828.56;5250993;28;20522;-68
2021/06/17 09:40:40;;;;;;;6.63;3.50;;;;;;;29.88;40.73;100835.97;5253805;28;20029;-67
2021/06/17 09:43:11;;;;;;;7.32;3.28;;;;;;;29.78;40.72;100832.13;5253415;28;20025;-67
2021/06/17 09:45:57;;;;;;;4.80;2.83;;;;;;;29.87;41.33;100840.53;5253196;28;20035;-68
2021/06/17 09:48:30;;;;;;;5.07;3.00;;;;;;;29.79;39.85;100841.03;5251843;28;20036;-68
2021/06/17 09:51:21;;;;;;;6.97;3.30;;;;;;;29.91;40.68;100848.94;5252852;28;20036;-68
2021/06/17 09:54:06;;;;;;;6.82;2.88;;;;;;;29.87;40.58;100850.53;5254507;28;20088;-66
2021/06/17 09:56:38;;;;;;;7.05;2.67;;;;;;;29.86;39.92;100862.44;5253385;28;21035;-71
2021/06/17 09:59:10;;;;;;;9.13;3.20;;;;;;;29.99;40.73;100868.19;5251353;28;20086;-66
2021/06/17 10:01:43;;;;;;;8.48;2.95;;;;;;;29.95;40.98;100863.56;5247506;28;20060;-67
2021/06/17 10:04:16;;;;;;;7.55;2.95;;;;;;;29.97;40.51;100861.44;5247417;28;20471;-67
2021/06/17 10:06:48;;;;;;;11.48;3.55;;;;;;;30.00;40.70;100872.53;5247847;28;20025;-67
2021/06/17 10:09:19;;;;;;;9.45;3.75;;;;;;;30.02;41.25;100883.88;5250836;28;20032;-67
2021/06/17 10:11:51;;;;;;;14.70;4.43;;;;;;;29.95;40.95;100885.19;5249453;28;20390;-67
2021/06/17 10:14:23;;;;;;;13.55;4.13;;;;;;;30.05;40.78;100882.56;5231616;28;20348;-67
2021/06/17 10:16:54;;;;;;;8.18;3.47;;;;;;;30.34;40.33;100880.34;5248234;28;20051;-67
2021/06/17 10:19:26;;;;;;;9.83;3.83;;;;;;;30.53;39.88;100884.25;5250580;28;20029;-70
2021/06/17 10:21:59;;;;;;;5.75;3.55;;;;;;;30.86;39.80;100884.97;5247208;28;20513;-67
2021/06/17 10:24:35;;;;;;;9.32;3.60;;;;;;;30.71;39.64;100885.69;5250210;28;20036;-68
2021/06/17 10:27:11;;;;;;;7.63;3.30;;;;;;;30.94;39.17;100887.16;5250409;28;20115;-68
2021/06/17 10:29:48;;;;;;;9.68;3.63;;;;;;;30.85;39.80;100879.84;5249708;28;20571;-67
2021/06/17 10:32:32;;;;;;;9.38;3.47;;;;;;;31.00;40.17;100882.59;5253669;28;20043;-67
2021/06/17 10:35:05;;;;;;;5.95;3.67;;;;;;;30.77;39.22;100898.19;5247857;28;20371;-67
2021/06/17 10:37:51;;;;;;;6.90;2.80;;;;;;;30.87;39.59;100892.00;5251275;28;20013;-67
2021/06/17 10:40:25;;;;;;;5.75;3.20;;;;;;;30.60;39.99;100902.94;5253416;28;20035;-67
2021/06/17 10:42:58;;;;;;;5.78;3.65;;;;;;;30.61;38.95;100899.19;5250030;28;20128;-68
2021/06/17 10:45:32;;;;;;;6.18;3.20;;;;;;;30.78;38.95;100902.53;5245099;28;20029;-67
2021/06/17 10:48:05;;;;;;;9.38;3.38;;;;;;;31.13;38.83;100909.16;5252627;28;20056;-67
2021/06/17 10:51:00;;;;;;;5.07;3.17;;;;;;;31.27;38.33;100904.88;5252531;28;20403;-67
2021/06/17 10:53:45;;;;;;;5.78;3.38;;;;;;;31.07;37.87;100899.41;5249586;28;20033;-68
2021/06/17 10:56:20;;;;;;;7.07;3.28;;;;;;;31.41;38.14;100901.69;5252103;28;20482;-66
2021/06/17 10:58:55;;;;;;;4.93;2.88;;;;;;;31.48;37.87;100891.41;5250272;28;20393;-67
2021/06/17 11:01:39;;;;;;;5.05;3.25;;;;;;;31.81;37.11;100889.25;5250715;28;20013;-69
2021/06/17 11:04:15;;;;;;;5.82;2.90;;;;;;;31.86;36.53;100900.97;5249054;28;20036;-69
2021/06/17 11:06:56;;;;;;;4.82;3.00;;;;;;;32.15;36.31;100892.25;5245654;28;20025;-67
2021/06/17 11:09:47;;;;;;;6.38;2.63;;;;;;;32.15;36.16;100905.81;5249489;28;20043;-67
2021/06/17 11:12:19;;;;;;;8.57;3.45;;;;;;;32.13;34.98;100905.28;5249977;28;20025;-67
2021/06/17 11:14:54;;;;;;;5.57;2.53;;;;;;;32.28;34.03;100901.72;5249620;28;20467;-67
2021/06/17 11:17:32;;;;;;;5.00;2.30;;;;;;;32.01;33.42;100902.84;5249614;28;20550;-66
2021/06/17 11:20:08;;;;;;;7.72;2.50;;;;;;;32.06;33.07;100905.56;5251118;28;20029;-67
2021/06/17 11:22:41;;;;;;;6.57;2.60;;;;;;;32.14;32.55;100918.56;5250990;28;20094;-67
2021/06/17 11:25:15;;;;;;;6.03;2.38;;;;;;;32.08;32.56;100911.50;5243191;28;20112;-66
2021/06/17 11:28:05;;;;;;;3.53;2.20;;;;;;;32.13;33.03;100916.94;5248078;28;20383;-66
2021/06/17 11:30:42;;;;;;;7.53;2.10;;;;;;;32.03;32.38;100906.09;5250520;28;20036;-66
2021/06/17 11:33:19;;;;;;;5.75;2.15;;;;;;;32.02;32.78;100909.91;5250123;28;20029;-67
2021/06/17 11:36:03;;;;;;;5.82;2.38;;;;;;;31.88;32.72;100923.16;5248214;28;20037;-66
2021/06/17 11:38:35;;;;;;;3.63;2.13;;;;;;;31.82;33.99;100920.69;5246873;28;20210;-66
2021/06/17 11:41:13;;;;;;;7.47;2.28;;;;;;;31.80;34.54;100928.28;5250209;28;20017;-66
2021/06/17 11:43:53;;;;;;;7.93;2.38;;;;;;;31.91;34.69;100936.19;5251991;28;20021;-66
2021/06/17 11:46:27;;;;;;;9.95;2.45;;;;;;;31.77;34.23;100942.38;5244963;28;20108;-66
2021/06/17 11:49:01;;;;;;;9.50;2.25;;;;;;;31.83;34.49;100942.09;5248294;28;20538;-67
2021/06/17 11:51:43;;;;;;;7.47;2.20;;;;;;;31.98;33.61;100933.22;5245859;28;20107;-68